WZZ1EL EDDF-LRSB
Flight info
| Callsign | WZZ1EL |
|---|---|
| Flight time | 1h 57m |
| Altitude | 31000 |
| Route | SULUS7S/18 SULUS Z650 VEMUT/N0453F350 DCT PEMEL/N0452F370 DCT DITIS DCT TOVKA DCT ALAMU DCT ETARO DCT ARCAZ DCT IBINU |
| Aircraft | A320/M-SDE3FGHIRWY/LB1 |
Departure
| Time | 2026-05-07 08:37 |
|---|---|
| Airport | Frankfurt Main Airport (EDDF) |
Arrival
| Time | 2026-05-07 10:34 |
|---|---|
| Airport | Sibiu International Airport (LRSB) |
| Time | Latitude | Longitude | Altitude | Speed | Heading |
|---|---|---|---|---|---|
| 2026-05-07 08:14 | 50.04402 | 8.56222 | 362 ft | 0 kts | 160° |
| 2026-05-07 08:27 | 50.04417 | 8.56214 | 362 ft | 2 kts | 160° |
| 2026-05-07 08:27 | 50.04433 | 8.56205 | 360 ft | 3 kts | 175° |
| 2026-05-07 08:28 | 50.04451 | 8.56203 | 359 ft | 3 kts | 192° |
| 2026-05-07 08:28 | 50.04467 | 8.56214 | 364 ft | 3 kts | 229° |
| 2026-05-07 08:28 | 50.04473 | 8.56224 | 360 ft | 0 kts | 242° |
| 2026-05-07 08:32 | 50.04472 | 8.56220 | 360 ft | 2 kts | 245° |
| 2026-05-07 08:33 | 50.04456 | 8.56159 | 358 ft | 10 kts | 249° |
| 2026-05-07 08:33 | 50.04411 | 8.56040 | 356 ft | 15 kts | 203° |
| 2026-05-07 08:33 | 50.04291 | 8.56060 | 355 ft | 20 kts | 210° |
| 2026-05-07 08:33 | 50.04219 | 8.55859 | 358 ft | 25 kts | 245° |
| 2026-05-07 08:34 | 50.04150 | 8.55573 | 355 ft | 32 kts | 248° |
| 2026-05-07 08:34 | 50.04070 | 8.55224 | 355 ft | 37 kts | 252° |
| 2026-05-07 08:34 | 50.03975 | 8.54828 | 355 ft | 43 kts | 250° |
| 2026-05-07 08:34 | 50.03896 | 8.54514 | 352 ft | 30 kts | 248° |
| 2026-05-07 08:35 | 50.03796 | 8.54227 | 351 ft | 30 kts | 253° |
| 2026-05-07 08:35 | 50.03729 | 8.53920 | 350 ft | 31 kts | 250° |
| 2026-05-07 08:35 | 50.03653 | 8.53601 | 342 ft | 32 kts | 250° |
| 2026-05-07 08:35 | 50.03574 | 8.53268 | 336 ft | 33 kts | 248° |
| 2026-05-07 08:36 | 50.03493 | 8.52921 | 336 ft | 35 kts | 243° |
| 2026-05-07 08:36 | 50.03373 | 8.52630 | 332 ft | 28 kts | 184° |
| 2026-05-07 08:36 | 50.03135 | 8.52604 | 336 ft | 56 kts | 180° |
| 2026-05-07 08:36 | 50.02539 | 8.52607 | 335 ft | 113 kts | 179° |
| 2026-05-07 08:37 | 50.01594 | 8.52604 | 335 ft | 157 kts | 179° |
| 2026-05-07 08:37 | 50.00447 | 8.52644 | 638 ft | 167 kts | 181° |
| 2026-05-07 08:37 | 49.99257 | 8.52653 | 1089 ft | 178 kts | 182° |
| 2026-05-07 08:37 | 49.97968 | 8.52673 | 1495 ft | 193 kts | 176° |
| 2026-05-07 08:38 | 49.96660 | 8.53409 | 1872 ft | 214 kts | 142° |
| 2026-05-07 08:38 | 49.95697 | 8.55256 | 2659 ft | 228 kts | 117° |
| 2026-05-07 08:38 | 49.94916 | 8.57442 | 3431 ft | 234 kts | 118° |
| 2026-05-07 08:38 | 49.94212 | 8.59744 | 3922 ft | 238 kts | 105° |
| 2026-05-07 08:39 | 49.93976 | 8.62339 | 4061 ft | 245 kts | 90° |
| 2026-05-07 08:39 | 49.93894 | 8.64991 | 4562 ft | 248 kts | 91° |
| 2026-05-07 08:39 | 49.93643 | 8.67722 | 5103 ft | 266 kts | 107° |
| 2026-05-07 08:39 | 49.92768 | 8.70263 | 5802 ft | 275 kts | 128° |
| 2026-05-07 08:40 | 49.91329 | 8.72250 | 6583 ft | 281 kts | 145° |
| 2026-05-07 08:40 | 49.89717 | 8.74017 | 7300 ft | 286 kts | 142° |
| 2026-05-07 08:40 | 49.88292 | 8.76184 | 8054 ft | 290 kts | 127° |
| 2026-05-07 08:40 | 49.87215 | 8.78851 | 8789 ft | 294 kts | 119° |
| 2026-05-07 08:41 | 49.86212 | 8.81656 | 9512 ft | 299 kts | 120° |
| 2026-05-07 08:41 | 49.85187 | 8.84496 | 10193 ft | 304 kts | 120° |
| 2026-05-07 08:41 | 49.84127 | 8.87425 | 10592 ft | 320 kts | 120° |
| 2026-05-07 08:41 | 49.83012 | 8.90499 | 10904 ft | 336 kts | 120° |
| 2026-05-07 08:42 | 49.81836 | 8.93731 | 11187 ft | 353 kts | 120° |
| 2026-05-07 08:42 | 49.80605 | 8.97119 | 11444 ft | 369 kts | 119° |
| 2026-05-07 08:42 | 49.79324 | 9.00635 | 11882 ft | 377 kts | 119° |
| 2026-05-07 08:42 | 49.78030 | 9.04175 | 12528 ft | 380 kts | 119° |
| 2026-05-07 08:43 | 49.76754 | 9.07767 | 13211 ft | 382 kts | 115° |
| 2026-05-07 08:43 | 49.75815 | 9.11612 | 13869 ft | 383 kts | 104° |
| 2026-05-07 08:43 | 49.75179 | 9.15619 | 14442 ft | 385 kts | 102° |
| 2026-05-07 08:43 | 49.74540 | 9.19660 | 14986 ft | 388 kts | 103° |
| 2026-05-07 08:44 | 49.73889 | 9.23729 | 15530 ft | 391 kts | 103° |
| 2026-05-07 08:44 | 49.73226 | 9.27824 | 16065 ft | 394 kts | 103° |
| 2026-05-07 08:44 | 49.72553 | 9.31946 | 16625 ft | 397 kts | 103° |
| 2026-05-07 08:44 | 49.71870 | 9.36106 | 17189 ft | 400 kts | 103° |
| 2026-05-07 08:45 | 49.71185 | 9.40290 | 17757 ft | 403 kts | 103° |
| 2026-05-07 08:45 | 49.70495 | 9.44499 | 18329 ft | 406 kts | 103° |
| 2026-05-07 08:45 | 49.69795 | 9.48755 | 18840 ft | 409 kts | 103° |
| 2026-05-07 08:45 | 49.69090 | 9.53020 | 19349 ft | 412 kts | 103° |
| 2026-05-07 08:46 | 49.68385 | 9.57270 | 19838 ft | 415 kts | 103° |
| 2026-05-07 08:46 | 49.67708 | 9.61615 | 20323 ft | 417 kts | 99° |
| 2026-05-07 08:46 | 49.67420 | 9.66071 | 20782 ft | 418 kts | 89° |
| 2026-05-07 08:46 | 49.67613 | 9.70556 | 21220 ft | 420 kts | 79° |
| 2026-05-07 08:47 | 49.68280 | 9.74954 | 21632 ft | 421 kts | 73° |
| 2026-05-07 08:47 | 49.69073 | 9.79318 | 22034 ft | 424 kts | 73° |
| 2026-05-07 08:47 | 49.69854 | 9.83725 | 22433 ft | 426 kts | 73° |
| 2026-05-07 08:47 | 49.70628 | 9.88162 | 22839 ft | 429 kts | 73° |
| 2026-05-07 08:48 | 49.71503 | 9.92566 | 23268 ft | 430 kts | 67° |
| 2026-05-07 08:48 | 49.72798 | 9.96747 | 23629 ft | 431 kts | 58° |
| 2026-05-07 08:48 | 49.74477 | 10.00577 | 23937 ft | 432 kts | 52° |
| 2026-05-07 08:48 | 49.76240 | 10.04347 | 24244 ft | 434 kts | 52° |
| 2026-05-07 08:49 | 49.78002 | 10.08144 | 24560 ft | 435 kts | 53° |
| 2026-05-07 08:49 | 49.79766 | 10.11962 | 24874 ft | 437 kts | 53° |
| 2026-05-07 08:49 | 49.81538 | 10.15810 | 25182 ft | 439 kts | 53° |
| 2026-05-07 08:49 | 49.83310 | 10.19672 | 25485 ft | 441 kts | 53° |
| 2026-05-07 08:50 | 49.85092 | 10.23555 | 25789 ft | 443 kts | 53° |
| 2026-05-07 08:50 | 49.86879 | 10.27454 | 26087 ft | 444 kts | 53° |
| 2026-05-07 08:50 | 49.88670 | 10.31367 | 26395 ft | 446 kts | 53° |
| 2026-05-07 08:50 | 49.90472 | 10.35308 | 26728 ft | 447 kts | 53° |
| 2026-05-07 08:51 | 49.92263 | 10.39228 | 27159 ft | 445 kts | 53° |
| 2026-05-07 08:51 | 49.94052 | 10.43148 | 27572 ft | 444 kts | 53° |
| 2026-05-07 08:51 | 49.95808 | 10.47007 | 28013 ft | 443 kts | 54° |
| 2026-05-07 08:51 | 49.97582 | 10.50915 | 28519 ft | 443 kts | 54° |
| 2026-05-07 08:52 | 49.99356 | 10.54826 | 28987 ft | 442 kts | 54° |
| 2026-05-07 08:52 | 50.01125 | 10.58729 | 29405 ft | 442 kts | 54° |
| 2026-05-07 08:52 | 50.02892 | 10.62638 | 29804 ft | 441 kts | 56° |
| 2026-05-07 08:52 | 50.04382 | 10.66802 | 30187 ft | 440 kts | 68° |
| 2026-05-07 08:53 | 50.05339 | 10.71311 | 30503 ft | 440 kts | 78° |
| 2026-05-07 08:53 | 50.05747 | 10.76028 | 30781 ft | 440 kts | 89° |
| 2026-05-07 08:53 | 50.05602 | 10.80780 | 30926 ft | 442 kts | 100° |
| 2026-05-07 08:53 | 50.04889 | 10.85450 | 30955 ft | 447 kts | 110° |
| 2026-05-07 08:54 | 50.02903 | 10.94752 | 30947 ft | 455 kts | 109° |
| 2026-05-07 08:54 | 50.00919 | 11.04105 | 30948 ft | 455 kts | 110° |
| 2026-05-07 08:55 | 49.98935 | 11.13446 | 30947 ft | 455 kts | 110° |
| 2026-05-07 08:55 | 49.96933 | 11.22776 | 30948 ft | 455 kts | 110° |
| 2026-05-07 08:56 | 49.94944 | 11.32092 | 30948 ft | 455 kts | 110° |
| 2026-05-07 08:56 | 49.92970 | 11.41438 | 30951 ft | 455 kts | 109° |
| 2026-05-07 08:57 | 49.91159 | 11.50845 | 30952 ft | 455 kts | 108° |
| 2026-05-07 08:57 | 49.89477 | 11.60309 | 30949 ft | 455 kts | 108° |
| 2026-05-07 08:58 | 49.87980 | 11.69783 | 30950 ft | 457 kts | 100° |
| 2026-05-07 08:58 | 49.87137 | 11.79560 | 30942 ft | 457 kts | 100° |
| 2026-05-07 08:59 | 49.86259 | 11.89330 | 30943 ft | 458 kts | 101° |
| 2026-05-07 08:59 | 49.85373 | 11.99094 | 30943 ft | 458 kts | 101° |
| 2026-05-07 09:00 | 49.84495 | 12.08862 | 30937 ft | 458 kts | 101° |
| 2026-05-07 09:00 | 49.83609 | 12.18636 | 30941 ft | 458 kts | 101° |
| 2026-05-07 09:01 | 49.82708 | 12.28405 | 30942 ft | 458 kts | 102° |
| 2026-05-07 09:01 | 49.81807 | 12.38185 | 30939 ft | 459 kts | 102° |
| 2026-05-07 09:02 | 49.80575 | 12.47830 | 30929 ft | 453 kts | 113° |
| 2026-05-07 09:02 | 49.78207 | 12.56826 | 30933 ft | 451 kts | 117° |
| 2026-05-07 09:03 | 49.75795 | 12.65788 | 30935 ft | 451 kts | 117° |
| 2026-05-07 09:03 | 49.73389 | 12.74758 | 30934 ft | 452 kts | 118° |
| 2026-05-07 09:04 | 49.70964 | 12.83715 | 30935 ft | 452 kts | 118° |
| 2026-05-07 09:04 | 49.68519 | 12.92678 | 30928 ft | 453 kts | 118° |
| 2026-05-07 09:05 | 49.66072 | 13.01632 | 30932 ft | 453 kts | 119° |
| 2026-05-07 09:05 | 49.63640 | 13.10542 | 30937 ft | 454 kts | 119° |
| 2026-05-07 09:06 | 49.61175 | 13.19512 | 30939 ft | 454 kts | 119° |
| 2026-05-07 09:06 | 49.58701 | 13.28449 | 30939 ft | 454 kts | 120° |
| 2026-05-07 09:07 | 49.56028 | 13.37213 | 30934 ft | 448 kts | 126° |
| 2026-05-07 09:07 | 49.52948 | 13.45558 | 30940 ft | 448 kts | 126° |
| 2026-05-07 09:08 | 49.49876 | 13.53905 | 30953 ft | 449 kts | 127° |
| 2026-05-07 09:08 | 49.46790 | 13.62249 | 30956 ft | 448 kts | 127° |
| 2026-05-07 09:09 | 49.43718 | 13.70524 | 30944 ft | 448 kts | 127° |
| 2026-05-07 09:09 | 49.40625 | 13.78835 | 30949 ft | 448 kts | 127° |
| 2026-05-07 09:10 | 49.37536 | 13.87107 | 30949 ft | 448 kts | 127° |
| 2026-05-07 09:10 | 49.34419 | 13.95428 | 30949 ft | 448 kts | 128° |
| 2026-05-07 09:11 | 49.31309 | 14.03683 | 30942 ft | 448 kts | 128° |
| 2026-05-07 09:11 | 49.28181 | 14.11975 | 30947 ft | 448 kts | 128° |
| 2026-05-07 09:12 | 49.25586 | 14.18842 | 30943 ft | 449 kts | 128° |
| 2026-05-07 09:12 | 49.22451 | 14.27113 | 30953 ft | 449 kts | 128° |
| 2026-05-07 09:13 | 49.19310 | 14.35362 | 30944 ft | 449 kts | 128° |
| 2026-05-07 09:13 | 49.16156 | 14.43606 | 30943 ft | 449 kts | 128° |
| 2026-05-07 09:14 | 49.12993 | 14.51842 | 30938 ft | 450 kts | 128° |
| 2026-05-07 09:14 | 49.09825 | 14.60092 | 30939 ft | 450 kts | 128° |
| 2026-05-07 09:15 | 49.06656 | 14.68336 | 30938 ft | 451 kts | 129° |
| 2026-05-07 09:15 | 49.03476 | 14.76575 | 30941 ft | 451 kts | 129° |
| 2026-05-07 09:16 | 49.00282 | 14.84800 | 30942 ft | 451 kts | 129° |
| 2026-05-07 09:16 | 48.97084 | 14.93028 | 30938 ft | 451 kts | 129° |
| 2026-05-07 09:17 | 48.93905 | 15.01172 | 30940 ft | 451 kts | 129° |
| 2026-05-07 09:17 | 48.90680 | 15.09378 | 30943 ft | 451 kts | 129° |
| 2026-05-07 09:18 | 48.87581 | 15.17699 | 30940 ft | 455 kts | 126° |
| 2026-05-07 09:18 | 48.84740 | 15.26337 | 30956 ft | 458 kts | 124° |
| 2026-05-07 09:19 | 48.81944 | 15.35002 | 30966 ft | 456 kts | 125° |
| 2026-05-07 09:19 | 48.79079 | 15.43583 | 30952 ft | 455 kts | 126° |
| 2026-05-07 09:20 | 48.76168 | 15.52079 | 30950 ft | 454 kts | 126° |
| 2026-05-07 09:20 | 48.73254 | 15.60575 | 30959 ft | 454 kts | 126° |
| 2026-05-07 09:21 | 48.70353 | 15.69059 | 30966 ft | 453 kts | 126° |
| 2026-05-07 09:21 | 48.67449 | 15.77532 | 30950 ft | 454 kts | 126° |
| 2026-05-07 09:22 | 48.64526 | 15.86016 | 30951 ft | 455 kts | 125° |
| 2026-05-07 09:22 | 48.61617 | 15.94451 | 30952 ft | 456 kts | 125° |
| 2026-05-07 09:23 | 48.58660 | 16.02996 | 30952 ft | 456 kts | 125° |
| 2026-05-07 09:23 | 48.55704 | 16.11500 | 30955 ft | 457 kts | 125° |
| 2026-05-07 09:24 | 48.52742 | 16.19990 | 30963 ft | 458 kts | 125° |
| 2026-05-07 09:24 | 48.49790 | 16.28441 | 30966 ft | 458 kts | 125° |
| 2026-05-07 09:25 | 48.46805 | 16.36944 | 30966 ft | 459 kts | 125° |
| 2026-05-07 09:25 | 48.43814 | 16.45443 | 30965 ft | 459 kts | 125° |
| 2026-05-07 09:26 | 48.40811 | 16.53941 | 30970 ft | 460 kts | 125° |
| 2026-05-07 09:26 | 48.37804 | 16.62416 | 30985 ft | 459 kts | 125° |
| 2026-05-07 09:27 | 48.34802 | 16.70868 | 30990 ft | 458 kts | 125° |
| 2026-05-07 09:28 | 48.30291 | 16.83494 | 30986 ft | 456 kts | 124° |
| 2026-05-07 09:28 | 48.27352 | 16.91682 | 30987 ft | 456 kts | 124° |
| 2026-05-07 09:29 | 48.24340 | 16.99940 | 30995 ft | 455 kts | 125° |
| 2026-05-07 09:29 | 48.21268 | 17.08166 | 31001 ft | 455 kts | 126° |
| 2026-05-07 09:30 | 48.18170 | 17.16439 | 31002 ft | 455 kts | 125° |
| 2026-05-07 09:30 | 48.15076 | 17.24702 | 30992 ft | 455 kts | 125° |
| 2026-05-07 09:31 | 48.11981 | 17.32959 | 30989 ft | 455 kts | 125° |
| 2026-05-07 09:31 | 48.08875 | 17.41221 | 30989 ft | 455 kts | 125° |
| 2026-05-07 09:32 | 48.05762 | 17.49470 | 30972 ft | 456 kts | 126° |
| 2026-05-07 09:32 | 48.02638 | 17.57721 | 30973 ft | 457 kts | 125° |
| 2026-05-07 09:33 | 47.99504 | 17.65981 | 30966 ft | 458 kts | 126° |
| 2026-05-07 09:33 | 47.96357 | 17.74242 | 30978 ft | 458 kts | 126° |
| 2026-05-07 09:34 | 47.93199 | 17.82500 | 30974 ft | 459 kts | 126° |
| 2026-05-07 09:34 | 47.91047 | 17.88108 | 30975 ft | 459 kts | 126° |
| 2026-05-07 09:35 | 47.88314 | 17.95171 | 30975 ft | 460 kts | 126° |
| 2026-05-07 09:35 | 47.85140 | 18.03441 | 30972 ft | 461 kts | 125° |
| 2026-05-07 09:36 | 47.81957 | 18.11732 | 30969 ft | 462 kts | 125° |
| 2026-05-07 09:36 | 47.78750 | 18.20016 | 30971 ft | 462 kts | 126° |
| 2026-05-07 09:37 | 47.75528 | 18.28279 | 30972 ft | 463 kts | 126° |
| 2026-05-07 09:37 | 47.72328 | 18.36586 | 30967 ft | 465 kts | 124° |
| 2026-05-07 09:38 | 47.69335 | 18.45114 | 30978 ft | 467 kts | 122° |
| 2026-05-07 09:38 | 47.66413 | 18.53724 | 30976 ft | 467 kts | 122° |
| 2026-05-07 09:39 | 47.63445 | 18.62295 | 30985 ft | 467 kts | 123° |
| 2026-05-07 09:39 | 47.60426 | 18.70815 | 30987 ft | 467 kts | 123° |
| 2026-05-07 09:40 | 47.57387 | 18.79310 | 30987 ft | 467 kts | 123° |
| 2026-05-07 09:40 | 47.54348 | 18.87818 | 30992 ft | 467 kts | 123° |
| 2026-05-07 09:41 | 47.51307 | 18.96324 | 30996 ft | 468 kts | 123° |
| 2026-05-07 09:41 | 47.48249 | 19.04822 | 31002 ft | 468 kts | 123° |
| 2026-05-07 09:42 | 47.45134 | 19.13280 | 31003 ft | 468 kts | 123° |
| 2026-05-07 09:42 | 47.42003 | 19.21712 | 31002 ft | 469 kts | 123° |
| 2026-05-07 09:43 | 47.38867 | 19.30171 | 30998 ft | 469 kts | 123° |
| 2026-05-07 09:43 | 47.35744 | 19.38567 | 30993 ft | 470 kts | 123° |
| 2026-05-07 09:44 | 47.32588 | 19.47016 | 30993 ft | 470 kts | 124° |
| 2026-05-07 09:44 | 47.29425 | 19.55458 | 30987 ft | 471 kts | 124° |
| 2026-05-07 09:45 | 47.26251 | 19.63910 | 30989 ft | 472 kts | 124° |
| 2026-05-07 09:45 | 47.23070 | 19.72361 | 30993 ft | 472 kts | 124° |
| 2026-05-07 09:46 | 47.19880 | 19.80817 | 31000 ft | 472 kts | 124° |
| 2026-05-07 09:46 | 47.16685 | 19.89264 | 31004 ft | 473 kts | 124° |
| 2026-05-07 09:47 | 47.13476 | 19.97713 | 31021 ft | 473 kts | 124° |
| 2026-05-07 09:47 | 47.10259 | 20.06153 | 31018 ft | 474 kts | 124° |
| 2026-05-07 09:48 | 47.07031 | 20.14584 | 31027 ft | 474 kts | 124° |
| 2026-05-07 09:48 | 47.03794 | 20.23012 | 31023 ft | 475 kts | 124° |
| 2026-05-07 09:49 | 47.00568 | 20.31385 | 31024 ft | 475 kts | 124° |
| 2026-05-07 09:49 | 46.97311 | 20.39819 | 31022 ft | 475 kts | 124° |
| 2026-05-07 09:50 | 46.94050 | 20.48248 | 31016 ft | 476 kts | 124° |
| 2026-05-07 09:50 | 46.90780 | 20.56657 | 31005 ft | 476 kts | 124° |
| 2026-05-07 09:51 | 46.87504 | 20.65075 | 31001 ft | 476 kts | 124° |
| 2026-05-07 09:51 | 46.84218 | 20.73477 | 31002 ft | 477 kts | 124° |
| 2026-05-07 09:52 | 46.80919 | 20.81882 | 31005 ft | 477 kts | 124° |
| 2026-05-07 09:52 | 46.77616 | 20.90274 | 31007 ft | 477 kts | 124° |
| 2026-05-07 09:53 | 46.74307 | 20.98668 | 31010 ft | 477 kts | 124° |
| 2026-05-07 09:53 | 46.70994 | 21.07056 | 31008 ft | 478 kts | 124° |
| 2026-05-07 09:54 | 46.67665 | 21.15438 | 31009 ft | 478 kts | 124° |
| 2026-05-07 09:54 | 46.64329 | 21.23816 | 31017 ft | 478 kts | 124° |
| 2026-05-07 09:55 | 46.61010 | 21.32128 | 31017 ft | 478 kts | 124° |
| 2026-05-07 09:55 | 46.57659 | 21.40485 | 31020 ft | 478 kts | 124° |
| 2026-05-07 09:56 | 46.54341 | 21.48878 | 31029 ft | 480 kts | 122° |
| 2026-05-07 09:56 | 46.51353 | 21.57568 | 31023 ft | 482 kts | 119° |
| 2026-05-07 09:57 | 46.48491 | 21.66442 | 31036 ft | 483 kts | 119° |
| 2026-05-07 09:57 | 46.45593 | 21.75164 | 31046 ft | 482 kts | 120° |
| 2026-05-07 09:58 | 46.42600 | 21.83866 | 31053 ft | 482 kts | 120° |
| 2026-05-07 09:58 | 46.39586 | 21.92549 | 31055 ft | 483 kts | 120° |
| 2026-05-07 09:59 | 46.36572 | 22.01257 | 31057 ft | 483 kts | 120° |
| 2026-05-07 09:59 | 46.34080 | 22.08494 | 31054 ft | 483 kts | 120° |
| 2026-05-07 10:00 | 46.31071 | 22.17182 | 31055 ft | 483 kts | 120° |
| 2026-05-07 10:00 | 46.28049 | 22.25854 | 31060 ft | 483 kts | 120° |
| 2026-05-07 10:01 | 46.24520 | 22.35944 | 31055 ft | 484 kts | 120° |
| 2026-05-07 10:01 | 46.21976 | 22.43214 | 31062 ft | 484 kts | 120° |
| 2026-05-07 10:02 | 46.18960 | 22.51817 | 31058 ft | 483 kts | 120° |
| 2026-05-07 10:02 | 46.15908 | 22.60466 | 31053 ft | 484 kts | 120° |
| 2026-05-07 10:03 | 46.12844 | 22.69123 | 31064 ft | 484 kts | 120° |
| 2026-05-07 10:03 | 46.09774 | 22.77766 | 31060 ft | 485 kts | 120° |
| 2026-05-07 10:04 | 46.06702 | 22.86405 | 31058 ft | 483 kts | 120° |
| 2026-05-07 10:04 | 46.03677 | 22.94893 | 31047 ft | 476 kts | 120° |
| 2026-05-07 10:05 | 46.00639 | 23.03353 | 31050 ft | 476 kts | 120° |
| 2026-05-07 10:05 | 45.99116 | 23.07577 | 30902 ft | 475 kts | 120° |
| 2026-05-07 10:05 | 45.97416 | 23.11619 | 30274 ft | 470 kts | 132° |
| 2026-05-07 10:05 | 45.95093 | 23.14835 | 29400 ft | 461 kts | 149° |
| 2026-05-07 10:06 | 45.92280 | 23.16947 | 28427 ft | 453 kts | 165° |
| 2026-05-07 10:06 | 45.89222 | 23.17883 | 27436 ft | 448 kts | 178° |
| 2026-05-07 10:06 | 45.86136 | 23.17702 | 26408 ft | 442 kts | 195° |
| 2026-05-07 10:06 | 45.83262 | 23.16245 | 25389 ft | 438 kts | 211° |
| 2026-05-07 10:07 | 45.80852 | 23.13629 | 24490 ft | 434 kts | 228° |
| 2026-05-07 10:07 | 45.79189 | 23.10108 | 24080 ft | 420 kts | 246° |
| 2026-05-07 10:07 | 45.78212 | 23.06256 | 23948 ft | 403 kts | 251° |
| 2026-05-07 10:07 | 45.77358 | 23.02518 | 23844 ft | 388 kts | 251° |
| 2026-05-07 10:08 | 45.76541 | 22.98903 | 23726 ft | 375 kts | 251° |
| 2026-05-07 10:08 | 45.75753 | 22.95399 | 23609 ft | 364 kts | 251° |
| 2026-05-07 10:08 | 45.74993 | 22.91998 | 23456 ft | 353 kts | 251° |
| 2026-05-07 10:08 | 45.74253 | 22.88680 | 23106 ft | 348 kts | 251° |
| 2026-05-07 10:09 | 45.73525 | 22.85392 | 22650 ft | 345 kts | 251° |
| 2026-05-07 10:09 | 45.72816 | 22.82157 | 22049 ft | 346 kts | 251° |
| 2026-05-07 10:09 | 45.72112 | 22.78847 | 21408 ft | 349 kts | 254° |
| 2026-05-07 10:09 | 45.71924 | 22.75371 | 20780 ft | 356 kts | 275° |
| 2026-05-07 10:10 | 45.72649 | 22.71968 | 20169 ft | 364 kts | 296° |
| 2026-05-07 10:10 | 45.74105 | 22.68969 | 19559 ft | 369 kts | 306° |
| 2026-05-07 10:10 | 45.75710 | 22.66086 | 18964 ft | 371 kts | 306° |
| 2026-05-07 10:10 | 45.77331 | 22.63193 | 18381 ft | 373 kts | 307° |
| 2026-05-07 10:11 | 45.79211 | 22.60622 | 17718 ft | 378 kts | 325° |
| 2026-05-07 10:11 | 45.81614 | 22.59092 | 17064 ft | 381 kts | 346° |
| 2026-05-07 10:11 | 45.84253 | 22.58831 | 16423 ft | 383 kts | 6° |
| 2026-05-07 10:11 | 45.86810 | 22.59878 | 15789 ft | 384 kts | 27° |
| 2026-05-07 10:12 | 45.88955 | 22.62100 | 15169 ft | 381 kts | 47° |
| 2026-05-07 10:12 | 45.90483 | 22.65181 | 14576 ft | 378 kts | 65° |
| 2026-05-07 10:12 | 45.91272 | 22.68744 | 13977 ft | 374 kts | 84° |
| 2026-05-07 10:12 | 45.91394 | 22.72447 | 13314 ft | 370 kts | 91° |
| 2026-05-07 10:13 | 45.91425 | 22.76135 | 12668 ft | 369 kts | 91° |
| 2026-05-07 10:13 | 45.91456 | 22.79814 | 12027 ft | 368 kts | 92° |
| 2026-05-07 10:13 | 45.91488 | 22.83486 | 11402 ft | 367 kts | 92° |
| 2026-05-07 10:13 | 45.91521 | 22.87146 | 10789 ft | 366 kts | 92° |
| 2026-05-07 10:14 | 45.91552 | 22.90785 | 10243 ft | 363 kts | 92° |
| 2026-05-07 10:14 | 45.91585 | 22.94345 | 10056 ft | 349 kts | 92° |
| 2026-05-07 10:14 | 45.91618 | 22.97747 | 10043 ft | 331 kts | 92° |
| 2026-05-07 10:14 | 45.91647 | 23.00963 | 10053 ft | 313 kts | 92° |
| 2026-05-07 10:15 | 45.91670 | 23.04011 | 10039 ft | 298 kts | 93° |
| 2026-05-07 10:15 | 45.91691 | 23.06944 | 9890 ft | 289 kts | 93° |
| 2026-05-07 10:15 | 45.91710 | 23.09802 | 9684 ft | 283 kts | 93° |
| 2026-05-07 10:15 | 45.91728 | 23.12597 | 9472 ft | 277 kts | 93° |
| 2026-05-07 10:16 | 45.91744 | 23.15346 | 9260 ft | 273 kts | 93° |
| 2026-05-07 10:16 | 45.91757 | 23.18049 | 9047 ft | 268 kts | 93° |
| 2026-05-07 10:16 | 45.91768 | 23.20704 | 8835 ft | 264 kts | 93° |
| 2026-05-07 10:16 | 45.91780 | 23.23329 | 8630 ft | 261 kts | 93° |
| 2026-05-07 10:17 | 45.91793 | 23.25911 | 8425 ft | 257 kts | 93° |
| 2026-05-07 10:17 | 45.91756 | 23.28448 | 8224 ft | 252 kts | 98° |
| 2026-05-07 10:17 | 45.91589 | 23.30931 | 8023 ft | 247 kts | 99° |
| 2026-05-07 10:17 | 45.91419 | 23.33356 | 7823 ft | 241 kts | 99° |
| 2026-05-07 10:18 | 45.91254 | 23.35714 | 7623 ft | 234 kts | 99° |
| 2026-05-07 10:18 | 45.91093 | 23.38011 | 7424 ft | 228 kts | 99° |
| 2026-05-07 10:18 | 45.90934 | 23.40257 | 7242 ft | 225 kts | 99° |
| 2026-05-07 10:18 | 45.90774 | 23.42488 | 7039 ft | 225 kts | 99° |
| 2026-05-07 10:19 | 45.90614 | 23.44721 | 6853 ft | 225 kts | 99° |
| 2026-05-07 10:19 | 45.90453 | 23.46954 | 6652 ft | 224 kts | 99° |
| 2026-05-07 10:19 | 45.90291 | 23.49182 | 6458 ft | 223 kts | 99° |
| 2026-05-07 10:19 | 45.90129 | 23.51407 | 6258 ft | 223 kts | 99° |
| 2026-05-07 10:20 | 45.89968 | 23.53611 | 6061 ft | 223 kts | 99° |
| 2026-05-07 10:20 | 45.89806 | 23.55825 | 5861 ft | 222 kts | 99° |
| 2026-05-07 10:20 | 45.89642 | 23.58036 | 5656 ft | 223 kts | 99° |
| 2026-05-07 10:20 | 45.89479 | 23.60240 | 5450 ft | 222 kts | 99° |
| 2026-05-07 10:21 | 45.89317 | 23.62442 | 5262 ft | 222 kts | 98° |
| 2026-05-07 10:21 | 45.89208 | 23.64648 | 5087 ft | 222 kts | 93° |
| 2026-05-07 10:21 | 45.89186 | 23.66857 | 4986 ft | 221 kts | 93° |
| 2026-05-07 10:21 | 45.89161 | 23.69068 | 4916 ft | 222 kts | 93° |
| 2026-05-07 10:22 | 45.89133 | 23.71249 | 4864 ft | 221 kts | 92° |
| 2026-05-07 10:22 | 45.89104 | 23.73460 | 4821 ft | 221 kts | 92° |
| 2026-05-07 10:22 | 45.89075 | 23.75660 | 4772 ft | 220 kts | 92° |
| 2026-05-07 10:22 | 45.89046 | 23.77855 | 4713 ft | 220 kts | 92° |
| 2026-05-07 10:23 | 45.89018 | 23.80047 | 4661 ft | 219 kts | 92° |
| 2026-05-07 10:23 | 45.88988 | 23.82234 | 4604 ft | 219 kts | 92° |
| 2026-05-07 10:23 | 45.88956 | 23.84418 | 4560 ft | 219 kts | 91° |
| 2026-05-07 10:23 | 45.88923 | 23.86603 | 4505 ft | 218 kts | 91° |
| 2026-05-07 10:24 | 45.88891 | 23.88780 | 4457 ft | 218 kts | 91° |
| 2026-05-07 10:24 | 45.88860 | 23.90957 | 4402 ft | 218 kts | 91° |
| 2026-05-07 10:24 | 45.88828 | 23.93134 | 4352 ft | 218 kts | 91° |
| 2026-05-07 10:24 | 45.88796 | 23.95307 | 4307 ft | 218 kts | 91° |
| 2026-05-07 10:25 | 45.88763 | 23.97480 | 4252 ft | 217 kts | 91° |
| 2026-05-07 10:25 | 45.88727 | 23.99722 | 4218 ft | 238 kts | 92° |
| 2026-05-07 10:25 | 45.88686 | 24.02191 | 4125 ft | 257 kts | 92° |
| 2026-05-07 10:25 | 45.88638 | 24.04893 | 3989 ft | 279 kts | 92° |
| 2026-05-07 10:26 | 45.88590 | 24.07688 | 4006 ft | 280 kts | 91° |
| 2026-05-07 10:26 | 45.88546 | 24.10479 | 4009 ft | 280 kts | 92° |
| 2026-05-07 10:26 | 45.88506 | 24.13220 | 4014 ft | 276 kts | 92° |
| 2026-05-07 10:26 | 45.88463 | 24.15934 | 4004 ft | 268 kts | 92° |
| 2026-05-07 10:27 | 45.88420 | 24.18598 | 4004 ft | 261 kts | 92° |
| 2026-05-07 10:27 | 45.88377 | 24.21146 | 4000 ft | 249 kts | 92° |
| 2026-05-07 10:27 | 45.88335 | 24.23513 | 4003 ft | 231 kts | 92° |
| 2026-05-07 10:27 | 45.88296 | 24.25754 | 4002 ft | 216 kts | 93° |
| 2026-05-07 10:28 | 45.88258 | 24.27851 | 4024 ft | 211 kts | 92° |
| 2026-05-07 10:28 | 45.88209 | 24.29952 | 4012 ft | 207 kts | 97° |
| 2026-05-07 10:28 | 45.87808 | 24.31839 | 4000 ft | 191 kts | 121° |
| 2026-05-07 10:28 | 45.86965 | 24.33293 | 4009 ft | 190 kts | 143° |
| 2026-05-07 10:29 | 45.85817 | 24.34186 | 3913 ft | 187 kts | 164° |
| 2026-05-07 10:29 | 45.84541 | 24.34404 | 3590 ft | 185 kts | 183° |
| 2026-05-07 10:29 | 45.83242 | 24.34329 | 3506 ft | 188 kts | 181° |
| 2026-05-07 10:30 | 45.80624 | 24.34219 | 3513 ft | 188 kts | 182° |
| 2026-05-07 10:30 | 45.79372 | 24.33731 | 3511 ft | 189 kts | 212° |
| 2026-05-07 10:30 | 45.78496 | 24.32418 | 3527 ft | 179 kts | 243° |
| 2026-05-07 10:30 | 45.78192 | 24.30666 | 3557 ft | 185 kts | 269° |
| 2026-05-07 10:31 | 45.78238 | 24.28833 | 3523 ft | 182 kts | 271° |
| 2026-05-07 10:31 | 45.78276 | 24.27119 | 3504 ft | 163 kts | 269° |
| 2026-05-07 10:31 | 45.78307 | 24.25498 | 3508 ft | 164 kts | 270° |
| 2026-05-07 10:31 | 45.78333 | 24.23877 | 3460 ft | 162 kts | 269° |
| 2026-05-07 10:32 | 45.78357 | 24.22260 | 3178 ft | 164 kts | 269° |
| 2026-05-07 10:32 | 45.78383 | 24.20673 | 2921 ft | 162 kts | 269° |
| 2026-05-07 10:32 | 45.78410 | 24.19070 | 2707 ft | 161 kts | 269° |
| 2026-05-07 10:32 | 45.78437 | 24.17486 | 2488 ft | 157 kts | 270° |
| 2026-05-07 10:33 | 45.78464 | 24.15938 | 2277 ft | 152 kts | 271° |
| 2026-05-07 10:33 | 45.78490 | 24.14433 | 2072 ft | 148 kts | 271° |
| 2026-05-07 10:33 | 45.78518 | 24.12978 | 1905 ft | 149 kts | 273° |
| 2026-05-07 10:33 | 45.78539 | 24.11468 | 1633 ft | 151 kts | 273° |
| 2026-05-07 10:34 | 45.78566 | 24.09983 | 1462 ft | 141 kts | 273° |
| 2026-05-07 10:34 | 45.78591 | 24.08782 | 1464 ft | 79 kts | 271° |
| 2026-05-07 10:34 | 45.78609 | 24.08413 | 1469 ft | 9 kts | 319° |
| 2026-05-07 10:34 | 45.78676 | 24.08399 | 1471 ft | 12 kts | 354° |
| 2026-05-07 10:35 | 45.78765 | 24.08403 | 1476 ft | 14 kts | 2° |
| 2026-05-07 10:35 | 45.78820 | 24.08486 | 1473 ft | 13 kts | 79° |
| 2026-05-07 10:35 | 45.78819 | 24.08635 | 1472 ft | 17 kts | 91° |
| 2026-05-07 10:35 | 45.78817 | 24.08823 | 1469 ft | 21 kts | 91° |
| 2026-05-07 10:36 | 45.78815 | 24.09046 | 1461 ft | 24 kts | 90° |
| 2026-05-07 10:36 | 45.78808 | 24.09302 | 1461 ft | 27 kts | 91° |
| 2026-05-07 10:36 | 45.78827 | 24.09368 | 1460 ft | 4 kts | 14° |
| 2026-05-07 10:36 | 45.78848 | 24.09373 | 1463 ft | 0 kts | 357° |